createdAt,value
2022-07-29T00:00:54.883Z,4.80
2022-07-29T00:03:21.272Z,7.10
2022-07-29T00:05:47.624Z,2.65
2022-07-29T00:08:14.135Z,5.30
2022-07-29T00:10:40.453Z,5.40
2022-07-29T00:13:06.904Z,3.47
2022-07-29T00:15:33.317Z,5.25
2022-07-29T00:17:59.708Z,5.95
2022-07-29T00:20:25.989Z,4.22
2022-07-29T00:22:52.882Z,3.40
2022-07-29T00:25:19.139Z,5.45
2022-07-29T00:27:46.986Z,3.28
2022-07-29T00:30:13.377Z,4.88
2022-07-29T00:32:39.726Z,6.45
2022-07-29T00:35:24.671Z,5.00
2022-07-29T00:37:51.026Z,5.47
2022-07-29T00:40:17.353Z,4.68
2022-07-29T00:42:50.824Z,4.97
2022-07-29T00:45:17.828Z,2.90
2022-07-29T00:47:45.395Z,4.05
2022-07-29T00:50:12.971Z,5.40
2022-07-29T00:52:39.983Z,6.43
2022-07-29T00:55:08.831Z,3.75
2022-07-29T00:57:36.167Z,5.90
2022-07-29T01:00:04.148Z,4.40
2022-07-29T01:02:30.492Z,4.10
2022-07-29T01:04:58.002Z,6.50
2022-07-29T01:07:25.316Z,4.05
2022-07-29T01:09:51.724Z,3.83
2022-07-29T01:12:19.196Z,6.28
2022-07-29T01:14:46.466Z,3.92
2022-07-29T01:17:24.857Z,8.38
2022-07-29T01:19:54.609Z,5.40
2022-07-29T01:22:27.002Z,6.32
2022-07-29T01:25:08.636Z,4.63
2022-07-29T01:27:47.198Z,5.57
2022-07-29T01:30:14.739Z,4.75
2022-07-29T01:32:43.724Z,7.05
2022-07-29T01:35:15.735Z,4.60
2022-07-29T01:37:51.115Z,7.15
2022-07-29T01:40:22.082Z,3.92
2022-07-29T01:42:53.483Z,8.07
2022-07-29T01:45:22.460Z,7.53
2022-07-29T01:48:07.741Z,4.57
2022-07-29T01:50:35.382Z,6.53
2022-07-29T01:53:03.296Z,4.35
2022-07-29T01:55:32.049Z,6.20
2022-07-29T01:57:59.815Z,5.68
2022-07-29T02:00:26.834Z,4.50
2022-07-29T02:02:54.157Z,5.93
2022-07-29T02:05:22.508Z,5.30
2022-07-29T02:07:49.431Z,4.18
2022-07-29T02:10:17.156Z,5.38
2022-07-29T02:12:49.853Z,5.03
2022-07-29T02:15:17.680Z,6.40
2022-07-29T02:17:51.779Z,4.45
2022-07-29T02:20:18.401Z,4.03
2022-07-29T02:22:45.314Z,3.78
2022-07-29T02:25:14.097Z,4.68
2022-07-29T02:27:42.094Z,8.35
2022-07-29T02:30:08.961Z,7.57
2022-07-29T02:32:36.264Z,5.05
2022-07-29T02:35:03.151Z,6.63
2022-07-29T02:37:30.447Z,4.28
2022-07-29T02:39:58.267Z,7.80
2022-07-29T02:42:25.022Z,5.18
2022-07-29T02:44:51.417Z,4.53
2022-07-29T02:47:20.214Z,4.00
2022-07-29T02:49:53.609Z,10.68
2022-07-29T02:52:25.304Z,5.07
2022-07-29T02:54:54.507Z,6.40
2022-07-29T02:57:31.068Z,5.90
2022-07-29T02:59:59.749Z,7.32
2022-07-29T03:02:27.642Z,4.40
2022-07-29T03:04:55.120Z,3.83
2022-07-29T03:07:21.885Z,3.72
2022-07-29T03:09:48.306Z,6.97
2022-07-29T03:12:15.734Z,6.93
2022-07-29T03:14:42.148Z,3.80
2022-07-29T03:17:10.233Z,5.95
2022-07-29T03:19:36.805Z,5.93
2022-07-29T03:22:03.161Z,7.30
2022-07-29T03:24:30.804Z,6.32
2022-07-29T03:26:57.763Z,5.90
2022-07-29T03:29:24.739Z,5.07
2022-07-29T03:31:59.685Z,7.88
2022-07-29T03:34:26.013Z,5.55
2022-07-29T03:36:52.421Z,5.07
2022-07-29T03:39:21.396Z,4.75
2022-07-29T03:41:48.596Z,7.57
2022-07-29T03:44:16.899Z,6.28
2022-07-29T03:46:44.406Z,5.50
2022-07-29T03:49:12.217Z,8.75
2022-07-29T03:51:39.585Z,11.45
2022-07-29T03:54:09.931Z,6.15
2022-07-29T03:56:38.850Z,6.38
2022-07-29T03:59:05.546Z,5.90
2022-07-29T04:01:34.305Z,5.15
2022-07-29T04:04:01.847Z,8.40
2022-07-29T04:06:28.198Z,5.15
2022-07-29T04:08:54.516Z,4.25
2022-07-29T04:11:20.949Z,10.95
2022-07-29T04:13:47.270Z,7.45
2022-07-29T04:16:13.632Z,6.03
2022-07-29T04:18:40.072Z,5.95
2022-07-29T04:21:06.376Z,3.67
2022-07-29T04:23:34.350Z,5.63
2022-07-29T04:26:02.030Z,5.97
2022-07-29T04:28:28.377Z,7.75
2022-07-29T04:30:54.781Z,7.25
2022-07-29T04:33:21.078Z,4.15
2022-07-29T04:35:52.397Z,6.13
2022-07-29T04:38:19.044Z,8.27
2022-07-29T04:40:45.349Z,5.47
2022-07-29T04:43:14.351Z,6.75
2022-07-29T04:45:41.983Z,5.88
2022-07-29T04:48:08.604Z,4.78
2022-07-29T04:50:34.872Z,4.03
2022-07-29T04:53:01.236Z,4.38
2022-07-29T04:55:27.550Z,5.63
2022-07-29T19:58:23.391Z,8.05
2022-07-29T20:00:53.620Z,10.63
2022-07-29T20:03:20.033Z,11.43
2022-07-29T20:05:48.042Z,8.60
2022-07-29T20:08:14.844Z,10.45
2022-07-29T20:10:46.631Z,7.75
2022-07-29T20:13:13.045Z,13.10
2022-07-29T20:15:39.391Z,9.73
2022-07-29T20:18:05.813Z,10.63
2022-07-29T20:20:32.141Z,10.02
2022-07-29T20:22:59.228Z,6.97
2022-07-29T20:25:25.534Z,7.60
2022-07-29T20:27:54.824Z,7.60
2022-07-29T20:30:21.557Z,7.70
2022-07-29T20:32:48.397Z,8.20
2022-07-29T20:35:14.914Z,8.63
2022-07-29T20:37:52.153Z,10.55
2022-07-29T20:40:22.756Z,10.77
2022-07-29T20:42:49.139Z,9.68
2022-07-29T20:45:15.552Z,10.23
2022-07-29T20:47:42.116Z,6.55
2022-07-29T20:50:10.032Z,7.68
2022-07-29T20:52:36.484Z,9.13
2022-07-29T20:55:02.958Z,11.48
2022-07-29T20:57:38.589Z,8.70
2022-07-29T21:00:06.652Z,9.25
2022-07-29T21:02:33.381Z,9.20
2022-07-29T21:05:02.844Z,11.55
2022-07-29T21:07:29.524Z,10.02
2022-07-29T21:09:55.811Z,9.73
2022-07-29T21:12:22.603Z,8.27
2022-07-29T21:14:49.331Z,10.98
2022-07-29T21:17:16.599Z,11.07
2022-07-29T21:19:42.871Z,11.10
2022-07-29T21:22:09.580Z,20.27
2022-07-29T21:24:36.135Z,12.60
2022-07-29T21:27:22.001Z,12.48
2022-07-29T21:29:48.533Z,12.90
2022-07-29T21:32:27.673Z,12.77
2022-07-29T21:34:56.559Z,10.32
2022-07-29T21:37:22.920Z,8.15
2022-07-29T21:39:49.249Z,12.10
2022-07-29T21:42:15.735Z,11.85
2022-07-29T21:44:42.140Z,15.43
2022-07-29T21:47:09.107Z,14.30
2022-07-29T21:49:39.159Z,11.70
2022-07-29T21:52:05.776Z,16.20
2022-07-29T21:54:34.253Z,13.60
2022-07-29T21:57:00.695Z,13.02
2022-07-29T21:59:27.343Z,14.55
2022-07-29T22:01:53.679Z,14.35
2022-07-29T22:04:20.425Z,16.88
2022-07-29T22:06:47.075Z,13.43
2022-07-29T22:09:13.516Z,14.38
2022-07-29T22:11:39.884Z,12.38
2022-07-29T22:14:07.255Z,7.95
2022-07-29T22:16:33.662Z,12.45
2022-07-29T22:18:59.982Z,11.13
2022-07-29T22:21:26.371Z,9.73
2022-07-29T22:23:52.682Z,14.85
2022-07-29T22:26:19.584Z,9.55
2022-07-29T22:28:46.247Z,11.05
2022-07-29T22:31:12.573Z,17.30
2022-07-29T22:33:38.974Z,13.70
2022-07-29T22:36:05.348Z,9.82
2022-07-29T22:38:31.707Z,24.58
2022-07-29T22:41:00.559Z,20.85
2022-07-29T22:43:27.712Z,16.17
2022-07-29T22:45:54.051Z,14.20
2022-07-29T22:48:20.530Z,13.15
2022-07-29T22:50:46.876Z,11.95
2022-07-29T22:53:13.354Z,16.40
2022-07-29T22:55:39.731Z,13.90
2022-07-29T22:58:06.302Z,23.13
2022-07-29T23:00:32.603Z,10.50
2022-07-29T23:02:58.904Z,14.15
2022-07-29T23:05:26.053Z,10.68
2022-07-29T23:07:52.403Z,13.23
2022-07-29T23:10:18.898Z,10.65
2022-07-29T23:12:45.178Z,8.02
2022-07-29T23:15:11.659Z,11.35
2022-07-29T23:17:38.033Z,10.77
2022-07-29T23:20:05.785Z,10.95
2022-07-29T23:22:32.057Z,12.48
2022-07-29T23:24:58.353Z,12.13
2022-07-29T23:27:24.839Z,9.63
2022-07-29T23:29:51.230Z,9.07
2022-07-29T23:32:17.509Z,11.30
2022-07-29T23:34:43.867Z,11.02
2022-07-29T23:37:10.426Z,13.23
2022-07-29T23:39:36.723Z,11.30
2022-07-29T23:42:03.670Z,12.70
2022-07-29T23:44:30.009Z,9.85
2022-07-29T23:46:56.419Z,11.27
2022-07-29T23:49:22.832Z,12.00
2022-07-29T23:51:49.411Z,12.10
2022-07-29T23:54:15.768Z,10.85
2022-07-29T23:56:42.044Z,13.05
2022-07-29T23:59:08.411Z,11.25
